Time;durP1;ratioP1;P1;durP2;ratioP2;P2;SDS_P1;SDS_P2;PMS_P1;PMS_P2;Temp;Humidity;BMP_temperature;BMP_pressure;BME280_temperature;BME280_humidity;BME280_pressure;Samples;Min_cycle;Max_cycle;Signal;HPM_P1;HPM_P2
2023/02/18 00:00:59;;;;;;;0.80;0.70;;;;;;;14.30;67.48;99590.84;5028128;27;104421;-69
2023/02/18 00:03:29;;;;;;;1.00;0.90;;;;;;;14.34;67.41;99589.69;5025129;27;104256;-70
2023/02/18 00:05:58;;;;;;;0.90;0.70;;;;;;;14.17;67.90;99582.09;5027485;27;103158;-69
2023/02/18 00:08:26;;;;;;;0.70;0.70;;;;;;;14.19;67.81;99588.13;5029144;27;102743;-69
2023/02/18 00:10:53;;;;;;;1.53;0.60;;;;;;;14.24;67.84;99588.66;5024681;27;102670;-68
2023/02/18 00:13:21;;;;;;;0.90;0.67;;;;;;;14.13;68.38;99591.22;5022676;27;103681;-69
2023/02/18 00:15:49;;;;;;;0.70;0.53;;;;;;;14.25;68.10;99593.00;5024599;27;103024;-69
2023/02/18 00:18:17;;;;;;;0.70;0.70;;;;;;;14.29;67.86;99589.16;5025934;27;102707;-70
2023/02/18 00:20:45;;;;;;;0.83;0.80;;;;;;;14.18;68.06;99589.09;5031015;27;103865;-69
2023/02/18 00:23:16;;;;;;;0.70;0.70;;;;;;;14.01;68.70;99586.81;5032364;27;104013;-70
2023/02/18 00:25:44;;;;;;;1.70;1.00;;;;;;;14.02;68.54;99596.47;5030152;27;103361;-70
2023/02/18 00:28:12;;;;;;;2.03;0.73;;;;;;;14.06;68.53;99590.00;5030714;27;102642;-70
2023/02/18 00:30:41;;;;;;;1.30;0.70;;;;;;;14.16;68.60;99580.38;5033741;27;103030;-69
2023/02/18 00:33:08;;;;;;;0.80;0.80;;;;;;;14.21;68.35;99578.22;5028772;27;104164;-69
2023/02/18 00:35:36;;;;;;;1.03;0.60;;;;;;;14.16;68.60;99576.88;5029849;27;104514;-70
2023/02/18 00:38:04;;;;;;;1.30;0.90;;;;;;;14.09;68.81;99581.78;5031420;27;102711;-69
2023/02/18 00:40:37;;;;;;;1.60;0.90;;;;;;;14.31;68.22;99560.66;5030171;27;104029;-70
2023/02/18 00:43:05;;;;;;;0.70;0.60;;;;;;;14.28;68.41;99557.38;5021425;27;104156;-70
2023/02/18 00:45:33;;;;;;;0.80;0.80;;;;;;;14.15;68.77;99553.91;5027515;27;104390;-70
2023/02/18 00:48:00;;;;;;;1.00;0.70;;;;;;;14.06;69.10;99550.16;5025292;27;103032;-70
2023/02/18 00:50:28;;;;;;;1.00;0.90;;;;;;;13.52;70.81;99543.50;5033180;27;103781;-67
2023/02/18 00:52:57;;;;;;;2.30;0.77;;;;;;;13.87;70.29;99544.44;5025523;27;103975;-67
2023/02/18 00:55:25;;;;;;;0.70;0.70;;;;;;;13.73;70.38;99539.28;5030096;27;103504;-67
2023/02/18 00:57:54;;;;;;;0.93;0.70;;;;;;;13.95;69.45;99537.63;5027853;27;102735;-67
2023/02/18 01:00:24;;;;;;;1.33;0.80;;;;;;;13.92;69.43;99542.34;5027434;27;102753;-67
2023/02/18 01:02:52;;;;;;;2.40;0.70;;;;;;;13.58;70.64;99545.72;5026945;27;103333;-70
2023/02/18 01:05:22;;;;;;;1.30;0.90;;;;;;;13.98;69.57;99539.19;5026774;27;104284;-70
2023/02/18 01:07:50;;;;;;;1.00;0.90;;;;;;;14.05;69.11;99547.59;5028860;27;105450;-70
2023/02/18 01:10:18;;;;;;;1.00;0.83;;;;;;;13.75;70.01;99548.00;5022075;27;102784;-70
2023/02/18 01:12:45;;;;;;;2.37;0.90;;;;;;;13.82;69.63;99544.78;5023786;27;103356;-70
2023/02/18 01:15:17;;;;;;;0.93;0.87;;;;;;;13.89;69.41;99547.88;5022528;27;103486;-69
2023/02/18 01:17:45;;;;;;;1.13;0.97;;;;;;;13.83;69.82;99549.16;5029291;27;104981;-70
2023/02/18 01:20:14;;;;;;;1.37;1.27;;;;;;;13.72;70.15;99556.19;5038255;27;103797;-69
2023/02/18 01:22:42;;;;;;;1.07;0.97;;;;;;;13.82;69.93;99552.75;5031089;27;103925;-70
2023/02/18 01:25:11;;;;;;;1.20;1.10;;;;;;;13.94;69.66;99551.03;5047138;27;104382;-69
2023/02/18 01:27:40;;;;;;;1.10;1.00;;;;;;;13.99;69.16;99553.34;5028066;27;102776;-69
2023/02/18 01:30:12;;;;;;;1.20;1.10;;;;;;;13.72;70.32;99545.56;5027069;27;102698;-69
2023/02/18 01:32:41;;;;;;;0.93;0.87;;;;;;;14.05;69.36;99532.50;5028849;27;104226;-69
2023/02/18 01:35:13;;;;;;;0.90;0.90;;;;;;;13.92;69.83;99537.84;5029739;27;103166;-69
2023/02/18 01:37:44;;;;;;;1.00;0.90;;;;;;;13.82;70.11;99535.97;5042900;27;103858;-70
2023/02/18 01:40:13;;;;;;;1.10;0.90;;;;;;;13.81;70.28;99534.28;5038245;27;104296;-69
2023/02/18 01:42:42;;;;;;;1.00;0.70;;;;;;;13.88;70.07;99536.38;5026186;27;104587;-68
2023/02/18 01:45:40;;;;;;;0.93;0.90;;;;;;;13.85;70.15;99543.72;5029657;27;103532;-69
2023/02/18 01:48:15;;;;;;;1.60;1.03;;;;;;;13.70;70.54;99532.38;5026083;27;102667;-70
2023/02/18 01:50:48;;;;;;;1.20;0.87;;;;;;;13.83;70.11;99537.69;5031348;27;103521;-70
2023/02/18 01:53:20;;;;;;;1.00;1.00;;;;;;;13.62;70.86;99540.06;5029879;27;104503;-70
2023/02/18 01:55:49;;;;;;;3.13;1.10;;;;;;;13.70;70.64;99542.16;5025955;27;103202;-70
2023/02/18 01:58:17;;;;;;;1.77;0.80;;;;;;;13.47;71.53;99542.97;5024799;27;102645;-70
2023/02/18 02:00:47;;;;;;;1.20;1.10;;;;;;;13.90;70.34;99539.78;5037144;27;103492;-69
2023/02/18 02:03:16;;;;;;;0.87;0.87;;;;;;;13.78;70.45;99537.16;5030311;27;104421;-70
2023/02/18 02:05:44;;;;;;;0.93;0.83;;;;;;;13.92;70.00;99537.84;5030972;27;103242;-70
2023/02/18 02:08:16;;;;;;;1.20;1.00;;;;;;;13.78;70.42;99529.19;5026437;27;102766;-69
2023/02/18 02:10:58;;;;;;;1.47;1.30;;;;;;;13.65;70.60;99533.69;5032521;27;103741;-69
2023/02/18 02:13:36;;;;;;;1.00;0.90;;;;;;;13.77;70.34;99540.78;5031603;27;103956;-70
2023/02/18 02:16:10;;;;;;;1.37;1.00;;;;;;;13.90;70.05;99538.91;5029960;27;103110;-70
2023/02/18 02:18:51;;;;;;;1.10;1.00;;;;;;;13.81;70.28;99539.59;5030731;27;102652;-69
2023/02/18 02:21:54;;;;;;;2.13;1.10;;;;;;;13.80;70.35;99532.59;5030831;27;102679;-69
2023/02/18 02:24:52;;;;;;;1.00;0.90;;;;;;;13.74;70.71;99527.72;5022966;27;104262;-70
2023/02/18 02:27:25;;;;;;;1.10;0.97;;;;;;;13.62;71.14;99523.28;5030722;27;103363;-70
2023/02/18 02:30:29;;;;;;;1.20;1.10;;;;;;;13.84;70.43;99524.28;5027499;27;102818;-69
2023/02/18 02:33:40;;;;;;;1.67;1.20;;;;;;;13.90;70.07;99525.63;5028120;27;103015;-69
2023/02/18 02:36:14;;;;;;;1.33;1.00;;;;;;;13.82;70.34;99515.56;5025345;27;103437;-69
2023/02/18 02:38:53;;;;;;;1.17;1.07;;;;;;;13.58;70.99;99503.22;5030327;27;103162;-69
2023/02/18 02:41:33;;;;;;;1.50;1.40;;;;;;;13.57;70.97;99507.69;5030400;27;102616;-70
2023/02/18 02:44:20;;;;;;;1.03;1.00;;;;;;;13.63;70.68;99498.44;5019681;27;103812;-70
2023/02/18 02:46:52;;;;;;;1.30;1.20;;;;;;;13.81;70.30;99511.22;5027848;27;103649;-70
2023/02/18 02:49:33;;;;;;;1.47;1.37;;;;;;;13.36;71.36;99512.72;5030568;27;104090;-70
2023/02/18 02:52:09;;;;;;;1.20;1.10;;;;;;;13.74;70.52;99506.47;5027493;27;102857;-69
2023/02/18 02:54:37;;;;;;;1.53;1.30;;;;;;;13.56;70.97;99507.81;5024024;27;104164;-69
2023/02/18 02:57:30;;;;;;;1.53;1.37;;;;;;;13.49;71.15;99495.91;5024099;27;103304;-67
2023/02/18 03:00:09;;;;;;;2.13;1.50;;;;;;;13.38;71.95;99503.81;5025664;27;104641;-69
2023/02/18 03:02:53;;;;;;;3.03;1.30;;;;;;;13.47;71.17;99503.16;5024266;27;102835;-70
2023/02/18 03:05:34;;;;;;;2.87;1.43;;;;;;;13.35;71.85;99496.91;5024359;27;103639;-70
2023/02/18 03:08:30;;;;;;;1.17;1.07;;;;;;;13.70;70.78;99499.66;5020174;27;104222;-70
2023/02/18 03:11:04;;;;;;;1.33;1.23;;;;;;;13.62;70.78;99497.56;5022899;27;105031;-70
2023/02/18 03:13:43;;;;;;;1.97;1.27;;;;;;;13.60;70.54;99488.03;5027915;27;102730;-69
2023/02/18 03:16:24;;;;;;;2.53;1.50;;;;;;;13.59;70.91;99491.63;5026321;27;104301;-69
2023/02/18 03:19:01;;;;;;;1.60;1.07;;;;;;;13.62;70.40;99489.59;5024195;27;105553;-70
2023/02/18 03:21:34;;;;;;;1.03;0.93;;;;;;;13.70;70.41;99483.75;5026372;27;105109;-67
2023/02/18 03:24:10;;;;;;;1.93;1.30;;;;;;;13.46;71.17;99481.06;5020959;27;103112;-68
2023/02/18 03:26:45;;;;;;;1.83;1.50;;;;;;;13.56;70.57;99475.94;5033878;27;103748;-67
2023/02/18 03:29:16;;;;;;;1.63;1.47;;;;;;;13.56;70.66;99475.94;5026689;27;104172;-70
2023/02/18 03:31:54;;;;;;;2.20;1.30;;;;;;;13.44;70.65;99476.81;5028089;27;105210;-70
2023/02/18 03:34:29;;;;;;;4.00;1.30;;;;;;;13.47;70.59;99473.94;5023570;27;102969;-69
2023/02/18 03:36:59;;;;;;;1.23;1.13;;;;;;;13.52;70.31;99474.47;5025123;27;102839;-70
2023/02/18 03:39:31;;;;;;;1.67;1.00;;;;;;;13.55;70.26;99472.44;5023120;27;103256;-70
2023/02/18 03:41:59;;;;;;;1.77;1.43;;;;;;;13.52;70.26;99474.47;5027665;27;104153;-70
2023/02/18 03:44:26;;;;;;;1.83;1.17;;;;;;;13.52;70.10;99477.13;5032113;27;102619;-69
2023/02/18 03:46:54;;;;;;;2.07;1.20;;;;;;;13.63;69.63;99471.88;5031494;27;102797;-70
2023/02/18 03:49:23;;;;;;;1.43;1.30;;;;;;;13.57;69.71;99472.31;5022613;27;105156;-67
2023/02/18 03:51:50;;;;;;;1.67;1.40;;;;;;;13.41;70.17;99479.69;5028792;27;103374;-67
2023/02/18 03:54:20;;;;;;;1.23;1.10;;;;;;;13.47;69.62;99481.91;5030069;27;102698;-67
2023/02/18 03:56:49;;;;;;;1.07;1.00;;;;;;;13.67;69.16;99484.00;5031475;27;102889;-67
2023/02/18 03:59:17;;;;;;;1.30;1.20;;;;;;;13.63;69.53;99482.50;5033712;27;103365;-67
2023/02/18 04:01:45;;;;;;;1.57;1.23;;;;;;;13.40;70.00;99478.84;5026880;27;103353;-67
2023/02/18 04:04:12;;;;;;;1.50;1.20;;;;;;;13.42;70.01;99481.41;5035304;27;103103;-67
2023/02/18 04:06:40;;;;;;;1.17;1.07;;;;;;;13.32;70.26;99478.53;5032942;27;102686;-68
2023/02/18 04:09:08;;;;;;;1.83;1.33;;;;;;;12.97;71.12;99475.69;5029924;27;103503;-67
2023/02/18 04:11:37;;;;;;;1.50;1.40;;;;;;;13.10;70.83;99473.91;5026985;27;103408;-68
2023/02/18 04:14:07;;;;;;;1.47;1.37;;;;;;;13.10;70.51;99479.22;5032857;27;102970;-67
2023/02/18 04:16:37;;;;;;;1.43;1.30;;;;;;;13.20;70.36;99469.66;5034547;27;103647;-67
2023/02/18 04:19:05;;;;;;;1.30;1.20;;;;;;;12.98;71.22;99464.13;5032311;27;103268;-70
2023/02/18 04:21:35;;;;;;;1.50;1.20;;;;;;;12.99;71.09;99460.53;5031241;27;103168;-68
2023/02/18 04:24:05;;;;;;;1.63;1.53;;;;;;;12.89;71.48;99454.16;5032903;27;102600;-67
2023/02/18 04:26:33;;;;;;;1.30;1.20;;;;;;;13.22;70.45;99457.09;5032813;27;103426;-68
2023/02/18 04:29:01;;;;;;;1.17;1.03;;;;;;;13.33;69.90;99453.72;5027925;27;103987;-70
2023/02/18 04:31:30;;;;;;;1.40;1.30;;;;;;;13.23;70.20;99458.81;5032187;27;103209;-68
2023/02/18 04:33:58;;;;;;;1.47;1.10;;;;;;;13.27;70.28;99457.66;5024374;27;102637;-68
2023/02/18 04:36:26;;;;;;;0.90;0.90;;;;;;;13.17;70.49;99453.94;5026785;27;102806;-68
2023/02/18 04:38:54;;;;;;;1.20;1.10;;;;;;;13.20;70.22;99467.00;5026044;27;104116;-67
2023/02/18 04:41:21;;;;;;;1.43;1.10;;;;;;;13.27;70.05;99455.00;5030338;27;103256;-68
2023/02/18 04:43:52;;;;;;;3.37;1.10;;;;;;;13.35;69.73;99463.25;5033750;27;102897;-68
2023/02/18 04:46:19;;;;;;;1.00;0.90;;;;;;;13.30;69.89;99465.38;5028626;27;103114;-68
2023/02/18 04:48:48;;;;;;;0.80;0.77;;;;;;;13.30;69.71;99467.19;5030192;27;103802;-67
2023/02/18 04:51:16;;;;;;;0.90;0.90;;;;;;;13.16;70.13;99468.19;5032688;27;104103;-67
2023/02/18 04:53:45;;;;;;;1.90;1.13;;;;;;;13.08;70.39;99465.19;5030953;27;102732;-68
2023/02/18 04:56:15;;;;;;;0.80;0.80;;;;;;;13.12;70.48;99469.34;5032274;27;103950;-68
2023/02/18 04:58:42;;;;;;;0.90;0.90;;;;;;;13.13;70.41;99472.84;5031667;27;103289;-67
2023/02/18 05:01:10;;;;;;;0.70;0.70;;;;;;;13.21;69.96;99470.50;5029320;27;103272;-68
2023/02/18 05:03:38;;;;;;;1.10;1.00;;;;;;;13.25;69.68;99478.13;5032649;27;104006;-68
2023/02/18 05:06:07;;;;;;;1.10;1.03;;;;;;;13.26;69.53;99471.88;5029106;27;103881;-69
2023/02/18 05:08:36;;;;;;;1.30;1.20;;;;;;;13.19;69.67;99475.06;5028768;27;103764;-69
2023/02/18 05:11:06;;;;;;;0.97;0.97;;;;;;;13.13;69.73;99472.84;5027264;27;103276;-69
2023/02/18 05:13:36;;;;;;;1.23;1.03;;;;;;;12.88;70.30;99473.69;5028697;27;103323;-68
2023/02/18 05:16:04;;;;;;;0.80;0.80;;;;;;;13.06;70.27;99475.03;5032935;27;107201;-68
2023/02/18 05:18:32;;;;;;;1.20;1.00;;;;;;;13.06;70.03;99480.34;5032812;27;103437;-69
2023/02/18 05:21:00;;;;;;;1.17;1.07;;;;;;;13.12;69.78;99477.31;5029123;27;103163;-68
2023/02/18 05:23:29;;;;;;;1.00;0.90;;;;;;;13.14;69.68;99475.38;5033861;27;102712;-68
2023/02/18 05:25:57;;;;;;;0.70;0.70;;;;;;;13.15;69.50;99466.47;5031532;27;102720;-68
2023/02/18 05:28:25;;;;;;;1.33;1.23;;;;;;;13.05;69.73;99465.38;5029113;27;104054;-68
2023/02/18 05:30:52;;;;;;;2.17;1.00;;;;;;;13.01;69.95;99458.59;5029580;27;103242;-68
2023/02/18 05:33:20;;;;;;;1.90;1.30;;;;;;;12.89;70.47;99463.91;5030179;27;104038;-68
2023/02/18 05:35:48;;;;;;;1.00;0.70;;;;;;;13.02;70.15;99460.31;5032435;27;103926;-68
2023/02/18 05:38:16;;;;;;;1.20;0.80;;;;;;;12.99;70.16;99463.19;5028581;27;104324;-68
2023/02/18 05:40:45;;;;;;;0.83;0.80;;;;;;;13.00;70.15;99456.03;5028586;27;103320;-68
2023/02/18 05:43:13;;;;;;;0.80;0.77;;;;;;;12.96;70.18;99452.78;5030964;27;102654;-68
2023/02/18 05:45:43;;;;;;;1.13;1.10;;;;;;;12.90;70.12;99453.22;5032916;27;102601;-68
2023/02/18 05:48:11;;;;;;;1.13;1.03;;;;;;;12.89;70.04;99459.47;5043842;27;104209;-68
2023/02/18 05:50:41;;;;;;;0.93;0.90;;;;;;;12.85;70.73;99463.28;5028828;27;103251;-68
2023/02/18 05:53:09;;;;;;;0.87;0.60;;;;;;;12.83;70.61;99459.88;5029671;27;102734;-68
2023/02/18 05:55:37;;;;;;;2.10;1.20;;;;;;;12.68;70.68;99445.91;5030580;27;103847;-68
2023/02/18 05:58:07;;;;;;;1.10;1.00;;;;;;;12.68;71.68;99451.22;5028987;27;104383;-68
2023/02/18 06:00:35;;;;;;;2.23;1.00;;;;;;;12.65;71.78;99454.06;5030435;27;103373;-68
2023/02/18 06:03:02;;;;;;;1.40;1.20;;;;;;;12.79;71.39;99461.06;5030212;27;102588;-68
2023/02/18 06:05:30;;;;;;;1.00;0.90;;;;;;;12.77;71.37;99455.03;5031691;27;103082;-68
2023/02/18 06:07:58;;;;;;;1.10;1.00;;;;;;;12.78;71.41;99448.75;5031400;27;103734;-68
2023/02/18 06:10:26;;;;;;;1.07;0.97;;;;;;;12.81;71.50;99453.84;5027379;27;103523;-68
2023/02/18 06:12:56;;;;;;;1.13;0.90;;;;;;;12.74;71.61;99456.06;5028431;27;102736;-68
2023/02/18 06:15:27;;;;;;;2.90;1.40;;;;;;;12.60;72.07;99464.13;5028442;27;104202;-69
2023/02/18 06:17:55;;;;;;;1.30;1.20;;;;;;;12.63;72.12;99465.72;5025752;27;103245;-69
2023/02/18 06:20:22;;;;;;;1.27;1.17;;;;;;;12.65;72.15;99471.78;5027567;27;103299;-69
2023/02/18 06:22:50;;;;;;;3.63;1.67;;;;;;;12.52;72.72;99468.28;5029077;27;102789;-68
2023/02/18 06:25:18;;;;;;;1.20;1.00;;;;;;;12.64;72.26;99470.06;5030199;27;102710;-68
2023/02/18 06:27:46;;;;;;;1.00;0.90;;;;;;;12.66;72.02;99465.50;5032744;27;103550;-67
2023/02/18 06:30:14;;;;;;;1.03;0.90;;;;;;;12.66;72.09;99458.41;5031079;27;103181;-72
2023/02/18 06:32:43;;;;;;;1.00;0.90;;;;;;;12.64;71.79;99454.16;5028864;27;102647;-70
2023/02/18 06:35:11;;;;;;;1.13;0.90;;;;;;;12.67;71.71;99449.50;5032275;27;102700;-70
2023/02/18 06:37:41;;;;;;;1.10;1.00;;;;;;;12.66;72.10;99452.25;5031650;27;102992;-72
2023/02/18 06:40:09;;;;;;;1.50;1.20;;;;;;;12.63;72.61;99452.47;5028248;27;104190;-70
2023/02/18 06:42:37;;;;;;;1.60;1.23;;;;;;;12.47;73.22;99457.97;5029028;27;102732;-70
2023/02/18 06:45:05;;;;;;;1.17;1.07;;;;;;;12.51;73.74;99458.63;5033182;27;104615;-71
2023/02/18 06:47:35;;;;;;;2.40;1.20;;;;;;;12.55;73.81;99465.38;5030566;27;104194;-70
2023/02/18 06:50:06;;;;;;;2.70;1.20;;;;;;;12.52;74.00;99465.63;5033873;27;103272;-69
2023/02/18 06:52:33;;;;;;;1.37;1.27;;;;;;;12.54;74.16;99458.41;5027406;27;102875;-68
2023/02/18 06:55:01;;;;;;;2.60;1.33;;;;;;;12.46;74.56;99464.19;5029309;27;103845;-69
2023/02/18 06:57:29;;;;;;;1.27;0.90;;;;;;;12.64;73.90;99464.75;5025203;27;103466;-69
2023/02/18 06:59:57;;;;;;;1.80;1.20;;;;;;;12.53;74.41;99467.31;5029366;27;104256;-69
2023/02/18 07:02:25;;;;;;;1.73;1.30;;;;;;;12.61;74.48;99467.63;5028811;27;103751;-72
2023/02/18 07:04:55;;;;;;;2.70;1.00;;;;;;;12.68;74.00;99461.81;5022866;27;104014;-73
2023/02/18 07:07:24;;;;;;;1.43;0.97;;;;;;;12.73;74.11;99467.66;5029531;27;103304;-72
2023/02/18 07:09:52;;;;;;;1.60;0.93;;;;;;;12.83;73.71;99459.88;5032090;27;104233;-73
2023/02/18 07:12:19;;;;;;;0.83;0.83;;;;;;;12.85;73.62;99455.34;5023866;27;102688;-70
2023/02/18 07:14:47;;;;;;;1.03;0.83;;;;;;;13.00;73.10;99450.75;5028287;27;103583;-70
2023/02/18 07:17:15;;;;;;;1.27;1.00;;;;;;;12.91;73.26;99454.06;5027010;27;103926;-68
2023/02/18 07:19:43;;;;;;;2.20;0.97;;;;;;;12.91;73.39;99454.91;5027099;27;102589;-68
2023/02/18 07:22:11;;;;;;;1.00;0.90;;;;;;;13.01;73.14;99460.41;5028084;27;103056;-68
2023/02/18 07:24:42;;;;;;;2.50;1.20;;;;;;;12.93;73.48;99454.78;5030075;27;103550;-68
2023/02/18 07:27:11;;;;;;;2.27;1.07;;;;;;;12.91;73.16;99451.41;5026028;27;103853;-69
2023/02/18 07:29:39;;;;;;;1.20;1.00;;;;;;;13.02;72.80;99449.72;5029822;27;103204;-68
2023/02/18 07:32:06;;;;;;;2.13;1.10;;;;;;;12.85;73.56;99447.38;5027742;27;102654;-69
2023/02/18 07:34:34;;;;;;;1.20;1.10;;;;;;;13.07;72.65;99441.41;5026516;27;104129;-69
2023/02/18 07:37:03;;;;;;;0.97;0.90;;;;;;;13.11;72.54;99435.81;5032695;27;103386;-69
2023/02/18 07:39:31;;;;;;;2.93;1.40;;;;;;;13.13;72.36;99430.41;5028613;27;103219;-70
2023/02/18 07:42:02;;;;;;;1.33;1.23;;;;;;;13.11;72.26;99427.84;5025112;27;102660;-70
2023/02/18 07:44:33;;;;;;;1.47;1.30;;;;;;;13.13;72.25;99431.25;5028461;27;102673;-69
2023/02/18 07:47:01;;;;;;;1.40;1.20;;;;;;;13.13;72.23;99427.75;5026750;27;104218;-70
2023/02/18 07:49:29;;;;;;;1.10;1.00;;;;;;;13.45;71.54;99433.38;5027208;27;104289;-73
2023/02/18 07:51:57;;;;;;;2.50;1.87;;;;;;;13.44;71.28;99413.97;5031044;27;102583;-72
2023/02/18 07:54:26;;;;;;;1.83;1.40;;;;;;;13.41;71.27;99411.53;5026513;27;102903;-72
2023/02/18 07:56:54;;;;;;;1.67;1.30;;;;;;;13.41;71.19;99416.00;5024827;27;105192;-72
2023/02/18 07:59:23;;;;;;;1.70;1.30;;;;;;;13.50;71.17;99418.81;5027192;27;103219;-70
2023/02/18 08:01:51;;;;;;;2.47;1.30;;;;;;;13.53;70.79;99415.13;5021770;27;103091;-73
2023/02/18 08:04:19;;;;;;;2.17;0.97;;;;;;;13.66;70.26;99423.88;5027075;27;103966;-73
2023/02/18 08:06:49;;;;;;;1.20;1.10;;;;;;;13.64;70.54;99425.78;5029436;27;103235;-74
2023/02/18 08:09:17;;;;;;;1.77;1.33;;;;;;;13.69;70.20;99421.84;5024716;27;103361;-74
2023/02/18 08:11:45;;;;;;;1.63;1.30;;;;;;;13.67;70.37;99428.22;5026239;27;102987;-74
2023/02/18 08:14:13;;;;;;;1.33;1.20;;;;;;;13.75;70.00;99418.69;5027769;27;103129;-74
2023/02/18 08:16:42;;;;;;;1.73;1.10;;;;;;;13.87;69.33;99427.56;5028047;27;103660;-75
2023/02/18 08:19:10;;;;;;;1.87;1.20;;;;;;;13.80;69.21;99419.25;5027408;27;103309;-75
2023/02/18 08:21:38;;;;;;;1.40;1.30;;;;;;;13.83;69.33;99431.44;5026787;27;102675;-75
2023/02/18 08:24:07;;;;;;;2.03;1.40;;;;;;;13.94;68.56;99420.88;5026697;27;102725;-74
2023/02/18 08:26:37;;;;;;;1.63;1.47;;;;;;;13.81;68.08;99422.75;5028853;27;103311;-75
2023/02/18 08:29:12;;;;;;;4.30;1.57;;;;;;;13.86;67.83;99425.91;5030277;27;102960;-75
2023/02/18 08:31:41;;;;;;;1.23;1.07;;;;;;;13.95;67.66;99414.56;5027417;27;102739;-75
2023/02/18 08:34:11;;;;;;;1.73;1.40;;;;;;;14.10;67.26;99418.75;5026165;27;103985;-76
2023/02/18 08:36:39;;;;;;;3.20;1.50;;;;;;;14.12;67.00;99410.66;5027246;27;104297;-75
2023/02/18 08:39:07;;;;;;;1.53;1.43;;;;;;;14.16;67.00;99405.00;5026678;27;103276;-75
2023/02/18 08:41:34;;;;;;;1.43;1.33;;;;;;;14.11;66.39;99409.81;5031411;27;102751;-74
2023/02/18 08:44:02;;;;;;;2.33;1.30;;;;;;;14.32;65.95;99413.53;5032558;27;104244;-73
2023/02/18 08:46:30;;;;;;;1.20;1.10;;;;;;;14.28;66.15;99412.06;5030669;27;104358;-74
2023/02/18 08:49:04;;;;;;;1.47;1.37;;;;;;;14.51;65.60;99408.47;5034202;27;103281;-74
2023/02/18 08:51:35;;;;;;;1.97;1.43;;;;;;;14.59;65.13;99404.41;5032182;27;102644;-74
2023/02/18 08:54:03;;;;;;;1.40;1.30;;;;;;;14.62;64.80;99404.16;5034139;27;102630;-74
2023/02/18 08:56:32;;;;;;;1.90;1.43;;;;;;;14.62;64.60;99401.50;5029833;27;103876;-74
2023/02/18 08:59:00;;;;;;;1.07;0.90;;;;;;;14.77;64.51;99397.63;5031999;27;104850;-74
2023/02/18 09:01:27;;;;;;;2.53;1.20;;;;;;;14.72;64.70;99399.81;5033938;27;102794;-75
2023/02/18 09:03:55;;;;;;;3.10;1.13;;;;;;;14.94;64.22;99405.97;5025528;27;102694;-76
2023/02/18 09:06:24;;;;;;;1.10;1.00;;;;;;;14.94;64.34;99395.34;5034579;27;103755;-74
2023/02/18 09:08:52;;;;;;;1.53;0.93;;;;;;;15.03;64.10;99396.44;5023960;27;103222;-74
2023/02/18 09:11:20;;;;;;;1.27;1.17;;;;;;;14.93;64.26;99393.63;5033364;27;102794;-74
2023/02/18 09:13:48;;;;;;;1.10;1.00;;;;;;;15.25;63.18;99395.53;5028247;27;104684;-73
2023/02/18 09:16:18;;;;;;;1.53;1.10;;;;;;;15.24;63.08;99397.34;5030258;27;103386;-74
2023/02/18 09:18:47;;;;;;;1.30;1.20;;;;;;;15.19;63.16;99390.72;5032002;27;103261;-74
2023/02/18 09:21:19;;;;;;;2.17;1.20;;;;;;;15.53;62.48;99392.38;5027410;27;102699;-73
2023/02/18 09:23:48;;;;;;;1.40;1.20;;;;;;;15.31;62.53;99403.03;5030868;27;103482;-73
2023/02/18 09:26:20;;;;;;;1.90;1.00;;;;;;;15.57;62.26;99389.34;5024717;27;104980;-73
2023/02/18 09:28:49;;;;;;;1.00;0.80;;;;;;;15.45;61.77;99385.00;5045301;27;103862;-73
2023/02/18 09:31:18;;;;;;;1.00;0.80;;;;;;;15.60;61.73;99389.09;5027214;27;102792;-73
2023/02/18 09:33:51;;;;;;;2.30;1.70;;;;;;;15.96;60.69;99382.53;5035346;27;102857;-74
2023/02/18 09:36:20;;;;;;;6.93;1.53;;;;;;;15.79;60.99;99382.25;5028738;27;105236;-73
2023/02/18 09:38:49;;;;;;;0.90;0.80;;;;;;;16.02;60.81;99381.19;5028481;27;103199;-72
2023/02/18 09:41:27;;;;;;;1.13;0.87;;;;;;;16.02;59.88;99374.03;5032398;27;102923;-72
2023/02/18 09:43:59;;;;;;;2.50;1.00;;;;;;;16.11;60.17;99372.41;5029185;27;103737;-71
2023/02/18 09:46:32;;;;;;;1.10;1.00;;;;;;;15.97;59.55;99370.06;5028360;27;103937;-72
2023/02/18 09:49:04;;;;;;;1.30;1.07;;;;;;;15.86;59.83;99367.47;5035564;27;103202;-71
2023/02/18 09:51:32;;;;;;;0.83;0.83;;;;;;;15.74;60.23;99363.13;5029517;27;102719;-71
2023/02/18 09:54:01;;;;;;;1.20;1.10;;;;;;;15.53;60.33;99363.09;5036953;27;103981;-72
2023/02/18 09:56:33;;;;;;;1.17;1.00;;;;;;;15.58;60.73;99372.38;5030935;27;104083;-70
2023/02/18 09:59:07;;;;;;;1.53;0.80;;;;;;;15.79;60.32;99366.25;5028725;27;104198;-70
2023/02/18 10:01:38;;;;;;;1.00;0.77;;;;;;;16.21;59.54;99368.00;5021949;27;102633;-71
2023/02/18 10:04:13;;;;;;;0.83;0.80;;;;;;;15.62;60.32;99378.31;5028285;27;104067;-71
2023/02/18 10:06:40;;;;;;;0.60;0.60;;;;;;;15.98;60.41;99371.75;5025819;27;104192;-72
2023/02/18 10:09:19;;;;;;;2.50;1.00;;;;;;;15.78;60.10;99376.06;5028067;27;103193;-73
2023/02/18 10:11:50;;;;;;;3.10;0.90;;;;;;;15.94;60.19;99373.00;5023018;27;103052;-74
2023/02/18 10:14:18;;;;;;;1.17;0.95;;;;;;;15.54;60.97;99383.44;5026624;27;102768;-73
2023/02/18 10:16:49;;;;;;;1.03;0.90;;;;;;;15.82;60.47;99380.19;5025228;27;104009;-76
2023/02/18 10:19:24;;;;;;;1.07;0.80;;;;;;;15.79;60.42;99382.25;5029142;27;104267;-72
2023/02/18 10:21:53;;;;;;;0.93;0.90;;;;;;;15.93;59.67;99381.94;5029055;27;102662;-72
2023/02/18 10:24:30;;;;;;;1.00;0.80;;;;;;;15.66;60.03;99383.25;5029687;27;102937;-72
2023/02/18 10:26:59;;;;;;;2.43;1.07;;;;;;;15.98;59.30;99377.91;5027298;27;103876;-72
2023/02/18 10:29:31;;;;;;;1.33;0.80;;;;;;;15.75;59.50;99380.81;5026979;27;103306;-72
2023/02/18 10:32:05;;;;;;;1.67;1.00;;;;;;;15.79;59.68;99382.25;5023253;27;102750;-72
2023/02/18 10:34:41;;;;;;;4.37;1.00;;;;;;;15.97;58.74;99380.72;5031545;27;103827;-73
2023/02/18 10:37:28;;;;;;;2.28;1.15;;;;;;;16.27;58.72;99364.81;5030775;27;103046;-73
2023/02/18 10:40:09;;;;;;;1.00;0.90;;;;;;;16.31;58.22;99368.06;5030967;27;104204;-73
2023/02/18 10:42:49;;;;;;;2.43;1.00;;;;;;;15.82;58.71;99376.66;5030587;27;102729;-73
2023/02/18 10:45:26;;;;;;;17.60;3.67;;;;;;;15.99;58.38;99368.97;5029559;27;103850;-75
2023/02/18 10:48:13;;;;;;;1.57;0.90;;;;;;;16.20;57.66;99358.28;5030877;27;103714;-75
2023/02/18 10:50:45;;;;;;;1.83;0.98;;;;;;;16.22;57.47;99362.50;5036045;27;104250;-74
2023/02/18 10:53:23;;;;;;;2.38;1.20;;;;;;;16.29;57.82;99370.84;5035341;27;102793;-75
2023/02/18 10:55:55;;;;;;;1.27;1.00;;;;;;;16.11;58.18;99356.44;5034724;27;103788;-75
2023/02/18 10:58:31;;;;;;;3.03;1.17;;;;;;;16.24;57.86;99357.91;5028810;27;104261;-76
2023/02/18 11:01:03;;;;;;;1.23;0.93;;;;;;;16.16;57.52;99359.53;5020817;27;104735;-77
2023/02/18 11:03:43;;;;;;;1.00;0.90;;;;;;;16.06;57.63;99358.63;5015358;27;103153;-75
2023/02/18 11:06:21;;;;;;;1.00;0.90;;;;;;;15.98;58.24;99355.75;5022137;27;104019;-76
2023/02/18 11:08:51;;;;;;;1.95;1.15;;;;;;;15.94;57.84;99360.53;5026909;27;103308;-76
2023/02/18 11:11:29;;;;;;;2.45;0.90;;;;;;;16.10;57.40;99346.72;5022077;27;103089;-76
2023/02/18 11:14:01;;;;;;;1.08;0.98;;;;;;;15.83;57.58;99335.75;5019167;27;102818;-74
2023/02/18 11:16:38;;;;;;;1.38;0.90;;;;;;;15.87;57.62;99350.47;5038743;27;103220;-75
2023/02/18 11:19:26;;;;;;;0.80;0.80;;;;;;;16.13;57.36;99339.31;5022855;27;103232;-74
2023/02/18 11:22:08;;;;;;;0.77;0.77;;;;;;;16.37;56.60;99346.19;5025966;27;103284;-74
2023/02/18 11:24:38;;;;;;;5.47;0.80;;;;;;;16.37;55.95;99336.38;5015682;27;103822;-73
2023/02/18 11:27:11;;;;;;;2.15;0.80;;;;;;;16.51;55.46;99336.03;5017143;27;104144;-73
2023/02/18 11:29:43;;;;;;;1.40;1.10;;;;;;;16.29;54.79;99330.00;5026497;27;103208;-79
2023/02/18 11:32:12;;;;;;;1.83;0.93;;;;;;;16.77;54.33;99326.63;5026213;27;102787;-76
2023/02/18 11:34:44;;;;;;;1.15;1.05;;;;;;;16.58;54.29;99329.22;5027670;27;102648;-75
2023/02/18 11:37:17;;;;;;;1.00;0.90;;;;;;;16.48;54.85;99328.28;5024781;27;103030;-76
2023/02/18 11:39:49;;;;;;;1.80;0.88;;;;;;;16.86;54.35;99338.31;5029133;27;103424;-75
2023/02/18 11:42:22;;;;;;;1.90;1.50;;;;;;;16.66;54.01;99320.53;5025515;27;102983;-73